createdAt,value
2023-04-20T00:10:21.966Z,1.40
2023-04-20T00:13:21.149Z,2.00
2023-04-20T00:18:19.734Z,1.40
2023-04-20T00:25:47.796Z,1.20
2023-04-20T00:32:45.834Z,1.60
2023-04-20T00:35:16.865Z,1.80
2023-04-20T00:43:14.679Z,1.40
2023-04-20T00:45:14.146Z,2.20
2023-04-20T00:50:15.547Z,1.10
2023-04-20T00:51:15.501Z,1.30
2023-04-20T00:52:15.462Z,1.60
2023-04-20T00:53:15.463Z,1.40
2023-04-20T00:55:15.071Z,1.40
2023-04-20T00:57:44.376Z,1.80
2023-04-20T00:59:43.905Z,1.50
2023-04-20T01:06:42.381Z,1.90
2023-04-20T01:08:12.090Z,2.00
2023-04-20T01:10:12.158Z,1.40
2023-04-20T01:13:11.650Z,1.60
2023-04-20T01:16:14.317Z,2.70
2023-04-20T01:20:15.746Z,1.60
2023-04-20T01:22:45.971Z,1.70
2023-04-20T01:27:45.081Z,1.80
2023-04-20T01:30:14.841Z,1.60
2023-04-20T01:31:44.625Z,1.70
2023-04-20T01:33:14.351Z,2.10
2023-04-20T01:38:14.032Z,1.60
2023-04-20T01:46:11.587Z,1.90
2023-04-20T01:47:41.303Z,1.60
2023-04-20T01:51:10.604Z,1.70
2023-04-20T01:53:11.860Z,2.00
2023-04-20T01:54:41.551Z,1.40
2023-04-20T02:00:11.563Z,1.90
2023-04-20T02:06:10.063Z,1.70
2023-04-20T02:07:39.790Z,2.00
2023-04-20T02:12:38.764Z,1.80
2023-04-20T02:15:07.946Z,1.70
2023-04-20T02:19:06.964Z,1.40
2023-04-20T02:23:08.190Z,2.50
2023-04-20T02:26:07.713Z,3.40
2023-04-20T02:28:15.504Z,3.20
2023-04-20T02:30:15.493Z,2.60
2023-04-20T02:31:45.294Z,2.60
2023-04-20T02:34:17.265Z,2.00
2023-04-20T02:36:46.488Z,2.10
2023-04-20T02:42:43.968Z,2.40
2023-04-20T02:45:54.131Z,2.10
2023-04-20T02:47:13.202Z,1.70
2023-04-20T02:49:12.688Z,1.70
2023-04-20T02:53:13.410Z,2.30
2023-04-20T02:56:12.396Z,2.40
2023-04-20T02:58:11.864Z,2.10
2023-04-20T03:00:15.934Z,2.70
2023-04-20T03:02:45.327Z,2.50
2023-04-20T03:04:16.128Z,1.80
2023-04-20T03:05:45.132Z,2.40
2023-04-20T03:12:12.880Z,2.70
2023-04-20T03:17:10.779Z,1.90
2023-04-20T03:20:11.426Z,2.00
2023-04-20T03:22:52.859Z,1.90
2023-04-20T03:25:10.893Z,2.50
2023-04-20T03:30:41.454Z,2.40
2023-04-20T03:33:42.262Z,2.40
2023-04-20T03:43:40.734Z,2.10
2023-04-20T03:46:14.277Z,2.10
2023-04-20T03:50:17.308Z,2.50
2023-04-20T03:53:46.544Z,2.70
2023-04-20T03:56:46.026Z,2.10
2023-04-20T03:59:18.631Z,2.20
2023-04-20T04:01:17.912Z,2.30
2023-04-20T04:03:37.398Z,2.70
2023-04-20T04:08:08.132Z,2.70
2023-04-20T04:15:07.238Z,2.40
2023-04-20T04:20:37.283Z,2.70
2023-04-20T04:22:27.946Z,2.10
2023-04-20T04:24:55.996Z,2.30
2023-04-20T04:28:55.468Z,2.30
2023-04-20T04:30:26.007Z,2.30
2023-04-20T04:34:54.789Z,3.00
2023-04-20T04:38:24.437Z,2.10
2023-04-20T04:43:47.375Z,2.30
2023-04-20T04:46:17.112Z,2.10
2023-04-20T04:48:16.583Z,2.10
2023-04-20T04:54:45.623Z,2.00
2023-04-20T05:00:28.432Z,2.30
2023-04-20T05:05:56.171Z,1.90
2023-04-20T05:08:25.356Z,2.00
2023-04-20T05:16:52.480Z,2.20
2023-04-20T05:18:51.920Z,1.90
2023-04-20T05:21:21.165Z,1.90
2023-04-20T05:23:21.487Z,1.90
2023-04-20T05:33:39.458Z,1.70
2023-04-20T05:36:09.155Z,2.20
2023-04-20T05:38:38.969Z,1.90
2023-04-20T05:40:38.402Z,1.60
2023-04-20T05:44:36.926Z,1.80
2023-04-20T05:46:06.868Z,1.80
2023-04-20T05:49:06.152Z,3.20
2023-04-20T05:56:39.721Z,2.10
2023-04-20T06:03:18.429Z,2.10
2023-04-20T06:06:17.702Z,2.90
2023-04-20T06:10:18.447Z,1.90
2023-04-20T06:16:51.508Z,2.20
2023-04-20T06:21:54.894Z,1.70
2023-04-20T06:23:26.444Z,2.50
2023-04-20T06:29:25.004Z,2.30
2023-04-20T06:33:23.450Z,2.80
2023-04-20T06:38:22.527Z,1.80
2023-04-20T06:42:22.042Z,2.30
2023-04-20T06:50:25.552Z,2.20
2023-04-20T06:51:55.294Z,1.80
2023-04-20T06:53:25.025Z,2.20
2023-04-20T07:12:42.163Z,2.30
2023-04-20T07:16:41.305Z,2.30
2023-04-20T07:24:38.771Z,2.00
2023-04-20T07:30:48.538Z,2.40
2023-04-20T07:34:17.567Z,3.10
2023-04-20T07:42:17.078Z,2.70
2023-04-20T07:44:51.045Z,1.70
2023-04-20T07:50:28.396Z,2.60
2023-04-20T07:53:27.347Z,3.20
2023-04-20T07:55:56.554Z,3.50
2023-04-20T08:00:54.641Z,2.70
2023-04-20T08:02:24.451Z,2.20
2023-04-20T08:05:08.004Z,3.60
2023-04-20T08:06:39.336Z,2.70
2023-04-20T08:10:08.626Z,2.50
2023-04-20T08:13:08.143Z,2.50
2023-04-20T08:20:06.164Z,2.40
2023-04-20T08:26:05.165Z,2.50
2023-04-20T08:29:34.327Z,2.10
2023-04-20T08:32:34.327Z,2.60
2023-04-20T08:37:07.360Z,1.90
2023-04-20T08:38:37.136Z,2.10
2023-04-20T08:43:05.839Z,2.80
2023-04-20T08:55:42.879Z,2.00
2023-04-20T08:57:43.181Z,2.40
2023-04-20T09:27:31.492Z,2.50
2023-04-20T09:32:00.334Z,2.40
2023-04-20T09:50:35.018Z,2.70
2023-04-20T09:55:26.492Z,2.30
2023-04-20T10:02:55.677Z,2.30
2023-04-20T10:04:25.436Z,2.20
2023-04-20T10:06:27.507Z,2.50
2023-04-20T10:09:56.194Z,2.70
2023-04-20T10:22:33.156Z,2.90
2023-04-20T10:32:40.978Z,2.80
2023-04-20T10:34:40.963Z,2.60
2023-04-20T10:36:10.665Z,2.60
2023-04-20T10:38:12.809Z,2.60
2023-04-20T10:40:12.235Z,2.90
2023-04-20T10:43:13.042Z,2.70
2023-04-20T10:47:41.883Z,3.00
2023-04-20T10:49:12.049Z,2.60
2023-04-20T10:54:10.567Z,2.70
2023-04-20T11:09:08.825Z,2.50
2023-04-20T11:16:06.404Z,2.20
2023-04-20T11:17:36.089Z,2.60
2023-04-20T11:19:07.587Z,2.20
2023-04-20T11:21:07.106Z,3.00
2023-04-20T11:22:36.850Z,2.10
2023-04-20T11:25:35.791Z,2.80
2023-04-20T11:27:05.492Z,2.10
2023-04-20T11:28:35.189Z,3.00
2023-04-20T11:30:34.601Z,2.20
2023-04-20T11:32:34.272Z,2.80
2023-04-20T11:34:06.012Z,2.30
2023-04-20T11:35:33.516Z,2.40
2023-04-20T11:38:05.512Z,2.60
2023-04-20T11:43:04.014Z,2.10
2023-04-20T11:46:34.665Z,2.40
2023-04-20T12:00:12.272Z,3.00
2023-04-20T12:04:11.507Z,3.00
2023-04-20T12:08:11.293Z,2.80
2023-04-20T12:12:11.545Z,3.40
2023-04-20T12:13:41.264Z,2.50
2023-04-20T12:15:41.273Z,2.40
2023-04-20T12:20:39.337Z,2.90
2023-04-20T12:22:09.054Z,3.00
2023-04-20T12:28:38.032Z,3.00
2023-04-20T12:32:06.793Z,3.30
2023-04-20T12:34:09.546Z,3.10
2023-04-20T12:37:08.468Z,3.30
2023-04-20T12:38:40.023Z,2.70
2023-04-20T12:40:09.729Z,3.50
2023-04-20T12:43:09.460Z,4.30
2023-04-20T12:46:09.433Z,3.30
2023-04-20T12:47:39.134Z,3.10
2023-04-20T12:58:38.390Z,3.70
2023-04-20T13:00:08.077Z,2.70
2023-04-20T13:02:08.964Z,3.50
2023-04-20T13:06:37.585Z,4.00
2023-04-20T13:13:05.709Z,3.40
2023-04-20T13:21:33.429Z,3.40
2023-04-20T13:28:33.279Z,4.20
2023-04-20T13:30:32.717Z,3.40
2023-04-20T13:36:35.028Z,4.40
2023-04-20T13:41:07.111Z,2.60
2023-04-20T13:44:07.144Z,3.50
2023-04-20T13:45:36.957Z,2.80
2023-04-20T13:47:08.376Z,3.40
2023-04-20T13:49:07.854Z,3.40
2023-04-20T13:52:06.881Z,3.50
2023-04-20T13:54:06.329Z,3.50
2023-04-20T13:58:04.811Z,3.50
2023-04-20T13:59:34.555Z,2.60
2023-04-20T14:01:04.283Z,3.50
2023-04-20T14:03:35.449Z,3.40
2023-04-20T14:05:05.068Z,3.30
2023-04-20T14:06:05.061Z,3.10
2023-04-20T14:07:05.049Z,3.20
2023-04-20T14:09:34.803Z,3.10
2023-04-20T14:17:24.565Z,3.20
2023-04-20T14:20:53.824Z,3.30
2023-04-20T14:23:23.332Z,4.10
2023-04-20T14:24:53.061Z,3.90
2023-04-20T14:28:52.085Z,4.00
2023-04-20T14:39:54.437Z,3.20
2023-04-20T14:49:03.813Z,3.50
2023-04-20T14:51:03.272Z,3.30
2023-04-20T14:53:05.794Z,2.80
2023-04-20T14:55:35.021Z,4.10
2023-04-20T15:00:03.428Z,3.50
2023-04-20T15:02:36.519Z,3.20
2023-04-20T15:04:35.802Z,3.60
2023-04-20T15:06:05.371Z,3.50
2023-04-20T15:12:16.964Z,3.50
2023-04-20T15:16:57.026Z,3.10
2023-04-20T15:20:26.270Z,3.10
2023-04-20T15:24:55.021Z,3.80
2023-04-20T15:27:24.758Z,3.70
2023-04-20T15:28:54.507Z,3.00
2023-04-20T15:31:54.057Z,3.10
2023-04-20T15:37:22.895Z,3.40
2023-04-20T15:39:22.334Z,3.60
2023-04-20T15:43:21.417Z,4.10
2023-04-20T15:44:51.162Z,3.30
2023-04-20T15:50:49.109Z,3.30
2023-04-20T15:54:49.949Z,3.70
2023-04-20T15:57:52.433Z,3.10
2023-04-20T16:00:21.692Z,2.70
2023-04-20T16:01:51.480Z,2.70
2023-04-20T16:03:51.019Z,2.70
2023-04-20T16:07:20.174Z,3.40
2023-04-20T16:11:19.389Z,3.20
2023-04-20T16:13:18.896Z,2.70
2023-04-20T16:14:48.599Z,2.80
2023-04-20T16:16:18.377Z,2.80
2023-04-20T16:19:47.111Z,3.50
2023-04-20T16:25:46.899Z,3.80
2023-04-20T16:27:16.574Z,3.10
2023-04-20T16:30:46.381Z,2.80
2023-04-20T16:34:15.809Z,3.10
2023-04-20T16:36:16.924Z,2.90
2023-04-20T16:38:46.700Z,3.10
2023-04-20T16:41:16.467Z,3.90
2023-04-20T16:43:46.156Z,3.50
2023-04-20T16:45:15.889Z,2.90
2023-04-20T16:49:14.895Z,2.90
2023-04-20T16:51:14.375Z,3.20
2023-04-20T16:52:44.102Z,2.60
2023-04-20T16:55:43.122Z,3.60
2023-04-20T16:59:12.332Z,3.50
2023-04-20T17:02:11.891Z,2.90
2023-04-20T17:04:41.041Z,3.20
2023-04-20T17:07:10.712Z,3.60
2023-04-20T17:10:50.691Z,3.50
2023-04-20T17:12:50.130Z,2.60
2023-04-20T17:14:20.087Z,2.90
2023-04-20T17:15:49.589Z,3.40
2023-04-20T17:17:19.802Z,4.00
2023-04-20T17:19:30.527Z,3.30
2023-04-20T17:29:56.745Z,3.50
2023-04-20T17:35:24.541Z,4.20
2023-04-20T17:40:52.731Z,4.20
2023-04-20T17:43:52.155Z,4.00
2023-04-20T17:45:51.686Z,3.60
2023-04-20T17:48:21.380Z,3.50
2023-04-20T17:49:51.125Z,3.70
2023-04-20T17:52:51.129Z,3.50
2023-04-20T17:54:21.031Z,3.20
2023-04-20T17:58:22.897Z,3.90
2023-04-20T18:01:54.466Z,3.10
2023-04-20T18:04:55.887Z,4.20
2023-04-20T18:06:59.230Z,4.20
2023-04-20T18:09:28.434Z,3.60
2023-04-20T18:11:27.946Z,4.20
2023-04-20T18:13:57.182Z,4.00
2023-04-20T18:20:57.748Z,3.60
2023-04-20T18:23:58.506Z,3.90
2023-04-20T18:25:28.228Z,4.30
2023-04-20T18:28:27.818Z,4.00
2023-04-20T18:31:29.152Z,4.60
2023-04-20T18:32:58.913Z,4.90
2023-04-20T18:35:58.350Z,4.30
2023-04-20T18:39:33.567Z,3.30
2023-04-20T18:41:34.585Z,4.60
2023-04-20T18:44:04.134Z,4.40
2023-04-20T18:53:33.818Z,5.10
2023-04-20T18:56:33.364Z,5.50
2023-04-20T19:00:03.966Z,5.10
2023-04-20T19:03:32.709Z,4.90
2023-04-20T19:05:32.614Z,5.10
2023-04-20T19:08:02.829Z,5.20
2023-04-20T19:10:02.769Z,5.30
2023-04-20T19:11:32.486Z,4.50
2023-04-20T19:13:31.954Z,4.80
2023-04-20T19:16:31.522Z,6.00
2023-04-20T19:23:29.514Z,6.10
2023-04-20T19:27:58.838Z,4.70
2023-04-20T19:30:58.311Z,5.10
2023-04-20T19:32:29.433Z,5.50
2023-04-20T19:36:44.378Z,4.80
2023-04-20T19:40:58.926Z,4.90
2023-04-20T19:42:30.447Z,5.60
2023-04-20T19:44:00.187Z,5.40
2023-04-20T19:50:03.942Z,5.40
2023-04-20T19:53:31.508Z,4.70
2023-04-20T19:57:16.994Z,5.30
2023-04-20T19:59:17.260Z,4.50
2023-04-20T20:04:45.795Z,5.10
2023-04-20T20:13:43.036Z,3.80
2023-04-20T20:19:11.273Z,5.00
2023-04-20T20:23:40.494Z,5.50
2023-04-20T20:25:40.045Z,4.40
2023-04-20T20:29:39.562Z,4.70
2023-04-20T20:31:09.328Z,5.60
2023-04-20T20:33:08.731Z,5.10
2023-04-20T20:34:38.402Z,5.00
2023-04-20T20:36:08.149Z,5.70
2023-04-20T20:38:37.948Z,6.10
2023-04-20T20:40:38.747Z,4.70
2023-04-20T20:42:28.251Z,5.70
2023-04-20T20:44:57.969Z,4.70
2023-04-20T20:46:27.724Z,4.80
2023-04-20T20:48:57.961Z,5.70
2023-04-20T20:52:59.093Z,6.50
2023-04-20T20:56:19.742Z,5.60
2023-04-20T20:58:20.062Z,5.30
2023-04-20T21:00:20.050Z,5.60
2023-04-20T21:03:21.034Z,6.20
2023-04-20T21:04:52.905Z,5.70
2023-04-20T21:06:22.648Z,6.60
2023-04-20T21:08:12.192Z,5.90
2023-04-20T21:10:44.241Z,7.90
2023-04-20T21:17:43.960Z,8.50
2023-04-20T21:23:44.683Z,8.10
2023-04-20T21:25:14.785Z,8.10
2023-04-20T21:26:16.619Z,7.30
2023-04-20T21:27:14.757Z,8.20
2023-04-20T21:28:14.748Z,8.00
2023-04-20T21:32:16.741Z,6.90
2023-04-20T21:33:47.605Z,7.70
2023-04-20T21:40:51.959Z,6.70
2023-04-20T21:43:23.520Z,8.40
2023-04-20T21:44:55.274Z,9.00
2023-04-20T21:48:58.555Z,8.00
2023-04-20T21:50:59.822Z,8.90
2023-04-20T22:00:52.908Z,9.30
2023-04-20T22:04:27.673Z,9.60
2023-04-20T22:05:59.297Z,8.90
2023-04-20T22:08:30.018Z,9.50
2023-04-20T22:14:35.398Z,8.60
2023-04-20T22:16:08.784Z,8.20
2023-04-20T22:17:38.982Z,9.60
2023-04-20T22:40:17.133Z,9.40
2023-04-20T22:43:48.469Z,8.20
2023-04-20T22:54:24.160Z,7.60
2023-04-20T22:55:54.292Z,8.60
2023-04-20T22:57:57.157Z,7.50
2023-04-20T23:00:58.276Z,7.30
2023-04-20T23:02:28.424Z,7.80
2023-04-20T23:12:01.746Z,8.30
2023-04-20T23:20:10.825Z,8.00
2023-04-20T23:23:12.700Z,8.30
2023-04-20T23:25:12.296Z,8.90
2023-04-20T23:29:43.456Z,7.50
2023-04-20T23:38:09.722Z,7.10
2023-04-20T23:42:12.188Z,7.50
2023-04-20T23:50:48.322Z,8.10
2023-04-20T23:52:48.731Z,8.20
2023-04-20T23:55:24.089Z,8.20
